sensor_id;sensor_type;location;lat;lon;timestamp;P1;durP1;ratioP1;P2;durP2;ratioP2
32874;SDS011;40468;42.128;24.750;2022-10-16T00:00:08;10.38;;;4.93;;
32874;SDS011;40468;42.128;24.750;2022-10-16T00:01:41;8.45;;;3.88;;
32874;SDS011;40468;42.128;24.750;2022-10-16T00:03:13;6.07;;;3.70;;
32874;SDS011;40468;42.128;24.750;2022-10-16T00:04:45;8.10;;;3.63;;
32874;SDS011;40468;42.128;24.750;2022-10-16T00:06:17;7.85;;;4.13;;
32874;SDS011;40468;42.128;24.750;2022-10-16T00:07:50;6.97;;;4.18;;
32874;SDS011;40468;42.128;24.750;2022-10-16T00:09:22;11.95;;;4.07;;
32874;SDS011;40468;42.128;24.750;2022-10-16T00:10:58;5.97;;;4.20;;
32874;SDS011;40468;42.128;24.750;2022-10-16T00:12:32;7.50;;;4.40;;
32874;SDS011;40468;42.128;24.750;2022-10-16T00:14:04;12.27;;;4.13;;
32874;SDS011;40468;42.128;24.750;2022-10-16T00:15:38;7.88;;;4.22;;
32874;SDS011;40468;42.128;24.750;2022-10-16T00:17:09;6.85;;;4.32;;
32874;SDS011;40468;42.128;24.750;2022-10-16T00:18:41;9.70;;;4.60;;
32874;SDS011;40468;42.128;24.750;2022-10-16T00:20:13;6.97;;;4.37;;
32874;SDS011;40468;42.128;24.750;2022-10-16T00:21:44;9.02;;;3.97;;
32874;SDS011;40468;42.128;24.750;2022-10-16T00:23:16;6.90;;;4.10;;
32874;SDS011;40468;42.128;24.750;2022-10-16T00:24:47;8.60;;;4.80;;
32874;SDS011;40468;42.128;24.750;2022-10-16T00:26:19;8.25;;;4.28;;
32874;SDS011;40468;42.128;24.750;2022-10-16T00:27:53;11.93;;;4.78;;
32874;SDS011;40468;42.128;24.750;2022-10-16T00:29:24;10.20;;;4.45;;
32874;SDS011;40468;42.128;24.750;2022-10-16T00:30:56;7.57;;;4.22;;
32874;SDS011;40468;42.128;24.750;2022-10-16T00:32:29;9.40;;;4.15;;
32874;SDS011;40468;42.128;24.750;2022-10-16T00:34:00;14.00;;;4.40;;
32874;SDS011;40468;42.128;24.750;2022-10-16T00:35:32;7.00;;;4.20;;
32874;SDS011;40468;42.128;24.750;2022-10-16T00:37:03;7.57;;;4.35;;
32874;SDS011;40468;42.128;24.750;2022-10-16T00:38:35;10.02;;;4.30;;
32874;SDS011;40468;42.128;24.750;2022-10-16T00:40:08;9.23;;;4.27;;
32874;SDS011;40468;42.128;24.750;2022-10-16T00:41:40;18.17;;;4.60;;
32874;SDS011;40468;42.128;24.750;2022-10-16T00:43:14;8.63;;;4.13;;
32874;SDS011;40468;42.128;24.750;2022-10-16T00:45:05;8.05;;;4.32;;
32874;SDS011;40468;42.128;24.750;2022-10-16T00:46:40;10.10;;;4.75;;
32874;SDS011;40468;42.128;24.750;2022-10-16T00:48:13;9.05;;;4.20;;
32874;SDS011;40468;42.128;24.750;2022-10-16T00:49:45;9.18;;;5.05;;
32874;SDS011;40468;42.128;24.750;2022-10-16T00:51:19;11.32;;;4.78;;
32874;SDS011;40468;42.128;24.750;2022-10-16T00:52:56;9.65;;;4.53;;
32874;SDS011;40468;42.128;24.750;2022-10-16T00:54:30;10.30;;;4.70;;
32874;SDS011;40468;42.128;24.750;2022-10-16T00:56:03;11.27;;;4.75;;
32874;SDS011;40468;42.128;24.750;2022-10-16T00:57:34;6.38;;;4.22;;
32874;SDS011;40468;42.128;24.750;2022-10-16T00:59:10;10.35;;;4.70;;
32874;SDS011;40468;42.128;24.750;2022-10-16T01:00:46;7.88;;;4.85;;
32874;SDS011;40468;42.128;24.750;2022-10-16T01:02:17;8.27;;;4.20;;
32874;SDS011;40468;42.128;24.750;2022-10-16T01:03:49;8.30;;;4.88;;
32874;SDS011;40468;42.128;24.750;2022-10-16T01:05:21;7.03;;;4.28;;
32874;SDS011;40468;42.128;24.750;2022-10-16T01:06:55;8.60;;;4.47;;
32874;SDS011;40468;42.128;24.750;2022-10-16T01:08:34;11.98;;;4.55;;
32874;SDS011;40468;42.128;24.750;2022-10-16T01:10:16;9.95;;;4.72;;
32874;SDS011;40468;42.128;24.750;2022-10-16T01:12:01;8.68;;;4.72;;
32874;SDS011;40468;42.128;24.750;2022-10-16T01:13:41;7.78;;;4.78;;
32874;SDS011;40468;42.128;24.750;2022-10-16T01:15:20;11.65;;;4.95;;
32874;SDS011;40468;42.128;24.750;2022-10-16T01:16:59;10.05;;;4.85;;
32874;SDS011;40468;42.128;24.750;2022-10-16T01:18:37;10.68;;;5.40;;
32874;SDS011;40468;42.128;24.750;2022-10-16T01:20:15;12.88;;;5.05;;
32874;SDS011;40468;42.128;24.750;2022-10-16T01:21:55;15.60;;;5.97;;
32874;SDS011;40468;42.128;24.750;2022-10-16T01:23:34;13.02;;;6.40;;
32874;SDS011;40468;42.128;24.750;2022-10-16T01:25:17;13.60;;;5.40;;
32874;SDS011;40468;42.128;24.750;2022-10-16T01:27:10;11.10;;;5.60;;
32874;SDS011;40468;42.128;24.750;2022-10-16T01:28:45;18.60;;;6.78;;
32874;SDS011;40468;42.128;24.750;2022-10-16T01:30:23;18.25;;;6.28;;
32874;SDS011;40468;42.128;24.750;2022-10-16T01:32:00;13.93;;;6.13;;
32874;SDS011;40468;42.128;24.750;2022-10-16T01:33:38;12.90;;;5.95;;
32874;SDS011;40468;42.128;24.750;2022-10-16T01:35:14;17.48;;;6.68;;
32874;SDS011;40468;42.128;24.750;2022-10-16T01:36:54;14.00;;;5.80;;
32874;SDS011;40468;42.128;24.750;2022-10-16T01:38:30;11.65;;;6.13;;
32874;SDS011;40468;42.128;24.750;2022-10-16T01:40:07;14.63;;;6.32;;
32874;SDS011;40468;42.128;24.750;2022-10-16T01:41:43;11.20;;;6.00;;
32874;SDS011;40468;42.128;24.750;2022-10-16T01:43:20;14.10;;;6.60;;
32874;SDS011;40468;42.128;24.750;2022-10-16T01:44:56;20.98;;;6.18;;
32874;SDS011;40468;42.128;24.750;2022-10-16T01:46:30;10.52;;;6.10;;
32874;SDS011;40468;42.128;24.750;2022-10-16T01:48:03;14.25;;;7.63;;
32874;SDS011;40468;42.128;24.750;2022-10-16T01:49:39;17.60;;;6.65;;
32874;SDS011;40468;42.128;24.750;2022-10-16T01:51:12;16.45;;;7.40;;
32874;SDS011;40468;42.128;24.750;2022-10-16T01:52:46;11.18;;;6.05;;
32874;SDS011;40468;42.128;24.750;2022-10-16T01:54:22;15.98;;;6.35;;
32874;SDS011;40468;42.128;24.750;2022-10-16T01:55:57;12.98;;;6.20;;
32874;SDS011;40468;42.128;24.750;2022-10-16T01:57:31;14.45;;;6.55;;
32874;SDS011;40468;42.128;24.750;2022-10-16T01:59:09;13.68;;;6.55;;
32874;SDS011;40468;42.128;24.750;2022-10-16T02:00:44;15.23;;;6.95;;
32874;SDS011;40468;42.128;24.750;2022-10-16T02:02:19;18.13;;;6.80;;
32874;SDS011;40468;42.128;24.750;2022-10-16T02:03:52;14.20;;;6.35;;
32874;SDS011;40468;42.128;24.750;2022-10-16T02:05:30;12.30;;;5.80;;
32874;SDS011;40468;42.128;24.750;2022-10-16T02:07:05;13.25;;;6.03;;
32874;SDS011;40468;42.128;24.750;2022-10-16T02:08:37;14.07;;;7.00;;
32874;SDS011;40468;42.128;24.750;2022-10-16T02:11:42;13.77;;;5.90;;
32874;SDS011;40468;42.128;24.750;2022-10-16T02:13:16;11.97;;;6.83;;
32874;SDS011;40468;42.128;24.750;2022-10-16T02:14:51;14.45;;;6.57;;
32874;SDS011;40468;42.128;24.750;2022-10-16T02:16:26;10.77;;;5.95;;
32874;SDS011;40468;42.128;24.750;2022-10-16T02:18:04;16.30;;;6.70;;
32874;SDS011;40468;42.128;24.750;2022-10-16T02:19:38;15.52;;;6.95;;
32874;SDS011;40468;42.128;24.750;2022-10-16T02:21:11;12.60;;;5.82;;
32874;SDS011;40468;42.128;24.750;2022-10-16T02:22:48;13.80;;;6.82;;
32874;SDS011;40468;42.128;24.750;2022-10-16T02:24:24;14.77;;;7.10;;
32874;SDS011;40468;42.128;24.750;2022-10-16T02:26:03;15.68;;;6.82;;
32874;SDS011;40468;42.128;24.750;2022-10-16T02:27:38;13.60;;;6.53;;
32874;SDS011;40468;42.128;24.750;2022-10-16T02:29:14;15.60;;;7.35;;
32874;SDS011;40468;42.128;24.750;2022-10-16T02:30:51;15.48;;;7.18;;
32874;SDS011;40468;42.128;24.750;2022-10-16T02:32:28;11.43;;;6.65;;
32874;SDS011;40468;42.128;24.750;2022-10-16T02:34:02;13.10;;;7.00;;
32874;SDS011;40468;42.128;24.750;2022-10-16T02:35:37;16.30;;;6.35;;
32874;SDS011;40468;42.128;24.750;2022-10-16T02:37:11;17.83;;;7.20;;
32874;SDS011;40468;42.128;24.750;2022-10-16T02:38:44;15.68;;;6.57;;
32874;SDS011;40468;42.128;24.750;2022-10-16T02:40:16;10.90;;;6.70;;
32874;SDS011;40468;42.128;24.750;2022-10-16T02:41:48;15.07;;;7.03;;
32874;SDS011;40468;42.128;24.750;2022-10-16T02:43:20;16.15;;;6.20;;
32874;SDS011;40468;42.128;24.750;2022-10-16T02:44:52;12.38;;;6.25;;
32874;SDS011;40468;42.128;24.750;2022-10-16T02:46:33;20.17;;;7.13;;
32874;SDS011;40468;42.128;24.750;2022-10-16T02:48:05;11.98;;;6.60;;
32874;SDS011;40468;42.128;24.750;2022-10-16T02:49:37;13.88;;;6.47;;
32874;SDS011;40468;42.128;24.750;2022-10-16T02:51:09;17.25;;;7.15;;
32874;SDS011;40468;42.128;24.750;2022-10-16T02:52:41;12.68;;;5.93;;
32874;SDS011;40468;42.128;24.750;2022-10-16T02:54:13;11.65;;;6.50;;
32874;SDS011;40468;42.128;24.750;2022-10-16T02:55:45;10.40;;;6.03;;
32874;SDS011;40468;42.128;24.750;2022-10-16T02:57:17;15.60;;;7.15;;
32874;SDS011;40468;42.128;24.750;2022-10-16T02:58:48;16.20;;;6.63;;
32874;SDS011;40468;42.128;24.750;2022-10-16T03:00:20;17.77;;;6.32;;
32874;SDS011;40468;42.128;24.750;2022-10-16T03:01:52;17.15;;;7.00;;
32874;SDS011;40468;42.128;24.750;2022-10-16T03:03:27;11.18;;;5.97;;
32874;SDS011;40468;42.128;24.750;2022-10-16T03:04:59;14.43;;;6.57;;
32874;SDS011;40468;42.128;24.750;2022-10-16T03:06:30;13.07;;;6.78;;
32874;SDS011;40468;42.128;24.750;2022-10-16T03:08:02;12.55;;;7.10;;
32874;SDS011;40468;42.128;24.750;2022-10-16T03:09:34;14.05;;;6.65;;
32874;SDS011;40468;42.128;24.750;2022-10-16T03:11:05;16.90;;;7.50;;
32874;SDS011;40468;42.128;24.750;2022-10-16T03:12:37;15.40;;;6.65;;
32874;SDS011;40468;42.128;24.750;2022-10-16T03:14:09;14.43;;;7.45;;
32874;SDS011;40468;42.128;24.750;2022-10-16T03:15:41;16.13;;;7.32;;
32874;SDS011;40468;42.128;24.750;2022-10-16T03:17:14;16.13;;;6.55;;
32874;SDS011;40468;42.128;24.750;2022-10-16T03:18:47;16.77;;;7.25;;
32874;SDS011;40468;42.128;24.750;2022-10-16T03:20:19;11.93;;;5.95;;
32874;SDS011;40468;42.128;24.750;2022-10-16T03:21:50;15.27;;;7.97;;
32874;SDS011;40468;42.128;24.750;2022-10-16T03:23:22;17.20;;;7.88;;
32874;SDS011;40468;42.128;24.750;2022-10-16T03:24:54;16.35;;;8.57;;
32874;SDS011;40468;42.128;24.750;2022-10-16T03:26:25;13.32;;;8.70;;
32874;SDS011;40468;42.128;24.750;2022-10-16T03:27:57;16.30;;;7.82;;
32874;SDS011;40468;42.128;24.750;2022-10-16T03:29:35;13.02;;;8.07;;
32874;SDS011;40468;42.128;24.750;2022-10-16T03:31:07;21.80;;;9.23;;
32874;SDS011;40468;42.128;24.750;2022-10-16T03:32:40;16.20;;;8.23;;
32874;SDS011;40468;42.128;24.750;2022-10-16T03:34:12;14.88;;;8.60;;
32874;SDS011;40468;42.128;24.750;2022-10-16T03:35:50;17.73;;;8.15;;
32874;SDS011;40468;42.128;24.750;2022-10-16T03:37:22;14.57;;;8.35;;
32874;SDS011;40468;42.128;24.750;2022-10-16T03:38:54;13.50;;;8.50;;
32874;SDS011;40468;42.128;24.750;2022-10-16T03:40:26;19.55;;;8.13;;
32874;SDS011;40468;42.128;24.750;2022-10-16T03:41:58;14.10;;;8.57;;
32874;SDS011;40468;42.128;24.750;2022-10-16T03:43:30;18.88;;;8.73;;
32874;SDS011;40468;42.128;24.750;2022-10-16T03:45:02;13.75;;;8.20;;
32874;SDS011;40468;42.128;24.750;2022-10-16T03:46:35;16.88;;;7.78;;
32874;SDS011;40468;42.128;24.750;2022-10-16T03:48:07;14.45;;;7.97;;
32874;SDS011;40468;42.128;24.750;2022-10-16T03:49:39;18.98;;;9.65;;
32874;SDS011;40468;42.128;24.750;2022-10-16T03:51:11;14.07;;;8.10;;
32874;SDS011;40468;42.128;24.750;2022-10-16T03:52:42;18.65;;;8.45;;
32874;SDS011;40468;42.128;24.750;2022-10-16T03:54:15;19.33;;;8.63;;
32874;SDS011;40468;42.128;24.750;2022-10-16T03:55:46;19.30;;;8.20;;
32874;SDS011;40468;42.128;24.750;2022-10-16T03:57:17;22.95;;;8.73;;
32874;SDS011;40468;42.128;24.750;2022-10-16T03:58:48;18.90;;;9.57;;
32874;SDS011;40468;42.128;24.750;2022-10-16T04:00:20;15.45;;;8.98;;
32874;SDS011;40468;42.128;24.750;2022-10-16T04:01:52;17.83;;;9.25;;
32874;SDS011;40468;42.128;24.750;2022-10-16T04:03:25;20.55;;;8.30;;
32874;SDS011;40468;42.128;24.750;2022-10-16T04:04:56;20.95;;;9.43;;
32874;SDS011;40468;42.128;24.750;2022-10-16T04:06:28;14.77;;;8.07;;
32874;SDS011;40468;42.128;24.750;2022-10-16T04:08:00;15.15;;;8.48;;
32874;SDS011;40468;42.128;24.750;2022-10-16T04:09:32;21.17;;;8.57;;
32874;SDS011;40468;42.128;24.750;2022-10-16T04:11:03;14.40;;;8.75;;
32874;SDS011;40468;42.128;24.750;2022-10-16T04:12:36;13.30;;;8.18;;
32874;SDS011;40468;42.128;24.750;2022-10-16T04:14:08;17.90;;;8.60;;
32874;SDS011;40468;42.128;24.750;2022-10-16T04:15:40;16.50;;;8.98;;
32874;SDS011;40468;42.128;24.750;2022-10-16T04:17:12;16.10;;;9.00;;
32874;SDS011;40468;42.128;24.750;2022-10-16T04:18:45;14.80;;;8.35;;
32874;SDS011;40468;42.128;24.750;2022-10-16T04:20:17;16.48;;;8.88;;
32874;SDS011;40468;42.128;24.750;2022-10-16T04:21:49;12.05;;;8.32;;
32874;SDS011;40468;42.128;24.750;2022-10-16T04:23:20;16.50;;;8.98;;
32874;SDS011;40468;42.128;24.750;2022-10-16T04:24:53;16.13;;;9.20;;
32874;SDS011;40468;42.128;24.750;2022-10-16T04:26:24;18.67;;;9.00;;
32874;SDS011;40468;42.128;24.750;2022-10-16T04:27:56;16.85;;;8.02;;
32874;SDS011;40468;42.128;24.750;2022-10-16T04:29:28;13.05;;;7.25;;
32874;SDS011;40468;42.128;24.750;2022-10-16T04:31:03;13.27;;;8.05;;
32874;SDS011;40468;42.128;24.750;2022-10-16T04:32:34;21.75;;;7.85;;
32874;SDS011;40468;42.128;24.750;2022-10-16T04:34:07;15.30;;;7.75;;
32874;SDS011;40468;42.128;24.750;2022-10-16T04:35:39;17.55;;;7.35;;
32874;SDS011;40468;42.128;24.750;2022-10-16T04:37:11;14.70;;;7.32;;
32874;SDS011;40468;42.128;24.750;2022-10-16T04:38:43;14.20;;;7.20;;
32874;SDS011;40468;42.128;24.750;2022-10-16T04:40:15;16.48;;;7.65;;
32874;SDS011;40468;42.128;24.750;2022-10-16T04:41:47;15.10;;;7.28;;
32874;SDS011;40468;42.128;24.750;2022-10-16T04:43:18;12.43;;;7.53;;
32874;SDS011;40468;42.128;24.750;2022-10-16T04:44:50;16.30;;;7.60;;
32874;SDS011;40468;42.128;24.750;2022-10-16T04:46:22;15.50;;;7.55;;
32874;SDS011;40468;42.128;24.750;2022-10-16T04:47:56;12.80;;;7.13;;
32874;SDS011;40468;42.128;24.750;2022-10-16T04:49:30;14.05;;;7.28;;
32874;SDS011;40468;42.128;24.750;2022-10-16T04:51:02;15.32;;;7.10;;
32874;SDS011;40468;42.128;24.750;2022-10-16T04:52:34;16.45;;;7.50;;
32874;SDS011;40468;42.128;24.750;2022-10-16T04:54:06;12.65;;;6.93;;
32874;SDS011;40468;42.128;24.750;2022-10-16T04:55:37;14.43;;;7.53;;
32874;SDS011;40468;42.128;24.750;2022-10-16T04:57:08;18.92;;;8.13;;
32874;SDS011;40468;42.128;24.750;2022-10-16T04:58:40;14.57;;;7.50;;
32874;SDS011;40468;42.128;24.750;2022-10-16T05:00:12;14.77;;;8.73;;
32874;SDS011;40468;42.128;24.750;2022-10-16T05:01:44;16.85;;;7.65;;
32874;SDS011;40468;42.128;24.750;2022-10-16T05:03:16;17.80;;;7.97;;
32874;SDS011;40468;42.128;24.750;2022-10-16T05:04:49;18.17;;;8.70;;
32874;SDS011;40468;42.128;24.750;2022-10-16T05:06:21;20.08;;;11.05;;
32874;SDS011;40468;42.128;24.750;2022-10-16T05:07:53;14.93;;;10.35;;
32874;SDS011;40468;42.128;24.750;2022-10-16T05:09:25;18.88;;;10.93;;
32874;SDS011;40468;42.128;24.750;2022-10-16T05:10:57;24.08;;;15.35;;
32874;SDS011;40468;42.128;24.750;2022-10-16T05:12:30;14.63;;;7.70;;
32874;SDS011;40468;42.128;24.750;2022-10-16T05:14:02;16.10;;;8.05;;
32874;SDS011;40468;42.128;24.750;2022-10-16T05:15:34;14.98;;;7.43;;
32874;SDS011;40468;42.128;24.750;2022-10-16T05:17:06;17.45;;;8.07;;
32874;SDS011;40468;42.128;24.750;2022-10-16T05:18:38;23.50;;;10.50;;
32874;SDS011;40468;42.128;24.750;2022-10-16T05:20:11;12.88;;;8.40;;
32874;SDS011;40468;42.128;24.750;2022-10-16T05:21:44;13.25;;;7.70;;
32874;SDS011;40468;42.128;24.750;2022-10-16T05:23:16;15.60;;;8.15;;
32874;SDS011;40468;42.128;24.750;2022-10-16T05:24:47;21.10;;;8.82;;
32874;SDS011;40468;42.128;24.750;2022-10-16T05:26:19;16.48;;;9.00;;
32874;SDS011;40468;42.128;24.750;2022-10-16T05:27:51;16.73;;;8.77;;
32874;SDS011;40468;42.128;24.750;2022-10-16T05:29:23;19.42;;;8.80;;
32874;SDS011;40468;42.128;24.750;2022-10-16T05:30:55;16.23;;;8.80;;
32874;SDS011;40468;42.128;24.750;2022-10-16T05:32:27;15.30;;;9.35;;
32874;SDS011;40468;42.128;24.750;2022-10-16T05:34:05;17.77;;;8.90;;
32874;SDS011;40468;42.128;24.750;2022-10-16T05:35:43;25.73;;;9.40;;
32874;SDS011;40468;42.128;24.750;2022-10-16T05:37:15;21.92;;;8.35;;
32874;SDS011;40468;42.128;24.750;2022-10-16T05:38:49;16.52;;;8.30;;
32874;SDS011;40468;42.128;24.750;2022-10-16T05:40:21;18.15;;;9.50;;
32874;SDS011;40468;42.128;24.750;2022-10-16T05:41:53;18.38;;;9.52;;
32874;SDS011;40468;42.128;24.750;2022-10-16T05:43:26;13.13;;;8.50;;
32874;SDS011;40468;42.128;24.750;2022-10-16T05:44:58;20.45;;;10.32;;
32874;SDS011;40468;42.128;24.750;2022-10-16T05:46:30;17.15;;;8.52;;
32874;SDS011;40468;42.128;24.750;2022-10-16T05:48:05;19.52;;;8.38;;
32874;SDS011;40468;42.128;24.750;2022-10-16T05:49:37;22.35;;;9.20;;
32874;SDS011;40468;42.128;24.750;2022-10-16T05:51:10;34.63;;;18.30;;
32874;SDS011;40468;42.128;24.750;2022-10-16T05:52:44;61.90;;;29.60;;
32874;SDS011;40468;42.128;24.750;2022-10-16T05:54:16;16.92;;;9.15;;
32874;SDS011;40468;42.128;24.750;2022-10-16T05:55:51;13.85;;;8.23;;
32874;SDS011;40468;42.128;24.750;2022-10-16T05:57:23;13.98;;;8.60;;
32874;SDS011;40468;42.128;24.750;2022-10-16T05:58:58;20.83;;;10.68;;
32874;SDS011;40468;42.128;24.750;2022-10-16T06:00:30;17.58;;;9.77;;
32874;SDS011;40468;42.128;24.750;2022-10-16T06:02:02;15.18;;;8.38;;
32874;SDS011;40468;42.128;24.750;2022-10-16T06:03:34;15.30;;;7.28;;
32874;SDS011;40468;42.128;24.750;2022-10-16T06:05:06;15.43;;;6.75;;
32874;SDS011;40468;42.128;24.750;2022-10-16T06:06:40;18.52;;;7.38;;
32874;SDS011;40468;42.128;24.750;2022-10-16T06:08:12;12.77;;;6.78;;
32874;SDS011;40468;42.128;24.750;2022-10-16T06:09:44;15.10;;;6.78;;
32874;SDS011;40468;42.128;24.750;2022-10-16T06:11:20;13.07;;;6.50;;
32874;SDS011;40468;42.128;24.750;2022-10-16T06:12:53;13.68;;;5.65;;
32874;SDS011;40468;42.128;24.750;2022-10-16T06:14:25;11.25;;;5.55;;
32874;SDS011;40468;42.128;24.750;2022-10-16T06:15:58;10.63;;;5.35;;
32874;SDS011;40468;42.128;24.750;2022-10-16T06:17:31;11.00;;;5.30;;
32874;SDS011;40468;42.128;24.750;2022-10-16T06:19:03;12.60;;;5.63;;
32874;SDS011;40468;42.128;24.750;2022-10-16T06:22:09;9.07;;;5.15;;
32874;SDS011;40468;42.128;24.750;2022-10-16T06:23:41;9.57;;;5.95;;
32874;SDS011;40468;42.128;24.750;2022-10-16T06:25:28;8.30;;;5.05;;
32874;SDS011;40468;42.128;24.750;2022-10-16T06:27:03;14.00;;;5.93;;
32874;SDS011;40468;42.128;24.750;2022-10-16T06:28:35;10.45;;;5.22;;
32874;SDS011;40468;42.128;24.750;2022-10-16T06:30:07;8.27;;;4.78;;
32874;SDS011;40468;42.128;24.750;2022-10-16T06:31:40;11.10;;;5.45;;
32874;SDS011;40468;42.128;24.750;2022-10-16T06:33:12;14.75;;;5.90;;
32874;SDS011;40468;42.128;24.750;2022-10-16T06:34:44;11.40;;;5.32;;
32874;SDS011;40468;42.128;24.750;2022-10-16T06:36:17;9.75;;;4.60;;
32874;SDS011;40468;42.128;24.750;2022-10-16T06:37:52;13.52;;;5.05;;
32874;SDS011;40468;42.128;24.750;2022-10-16T06:39:24;12.30;;;5.18;;
32874;SDS011;40468;42.128;24.750;2022-10-16T06:40:56;8.40;;;4.93;;
32874;SDS011;40468;42.128;24.750;2022-10-16T06:42:28;10.70;;;4.43;;
32874;SDS011;40468;42.128;24.750;2022-10-16T06:43:59;17.08;;;7.30;;
32874;SDS011;40468;42.128;24.750;2022-10-16T06:45:30;10.98;;;4.88;;
32874;SDS011;40468;42.128;24.750;2022-10-16T06:47:02;7.85;;;4.30;;
32874;SDS011;40468;42.128;24.750;2022-10-16T06:48:34;10.60;;;4.78;;
32874;SDS011;40468;42.128;24.750;2022-10-16T06:50:07;9.82;;;4.32;;
32874;SDS011;40468;42.128;24.750;2022-10-16T06:51:39;8.32;;;4.75;;
32874;SDS011;40468;42.128;24.750;2022-10-16T06:53:13;7.85;;;4.82;;
32874;SDS011;40468;42.128;24.750;2022-10-16T06:54:45;11.18;;;4.47;;
32874;SDS011;40468;42.128;24.750;2022-10-16T06:56:17;8.70;;;4.68;;
32874;SDS011;40468;42.128;24.750;2022-10-16T06:57:50;8.98;;;4.57;;
32874;SDS011;40468;42.128;24.750;2022-10-16T06:59:22;12.02;;;6.80;;
32874;SDS011;40468;42.128;24.750;2022-10-16T07:00:57;13.38;;;7.90;;
32874;SDS011;40468;42.128;24.750;2022-10-16T07:02:29;19.20;;;11.05;;
32874;SDS011;40468;42.128;24.750;2022-10-16T07:04:04;8.57;;;5.90;;
32874;SDS011;40468;42.128;24.750;2022-10-16T07:05:36;23.67;;;6.15;;
32874;SDS011;40468;42.128;24.750;2022-10-16T07:07:09;11.95;;;5.18;;
32874;SDS011;40468;42.128;24.750;2022-10-16T07:08:49;12.45;;;7.15;;
32874;SDS011;40468;42.128;24.750;2022-10-16T07:10:21;6.93;;;4.57;;
32874;SDS011;40468;42.128;24.750;2022-10-16T07:11:54;6.55;;;3.97;;
32874;SDS011;40468;42.128;24.750;2022-10-16T07:13:26;10.95;;;5.35;;
32874;SDS011;40468;42.128;24.750;2022-10-16T07:14:57;8.88;;;4.93;;
32874;SDS011;40468;42.128;24.750;2022-10-16T07:16:30;19.50;;;5.10;;
32874;SDS011;40468;42.128;24.750;2022-10-16T07:18:03;10.00;;;5.65;;
32874;SDS011;40468;42.128;24.750;2022-10-16T07:19:35;8.82;;;4.60;;
32874;SDS011;40468;42.128;24.750;2022-10-16T07:21:21;8.52;;;4.93;;
32874;SDS011;40468;42.128;24.750;2022-10-16T07:22:55;8.57;;;4.85;;
32874;SDS011;40468;42.128;24.750;2022-10-16T07:24:28;17.15;;;5.32;;
32874;SDS011;40468;42.128;24.750;2022-10-16T07:26:00;7.28;;;4.68;;
32874;SDS011;40468;42.128;24.750;2022-10-16T07:27:32;13.43;;;5.03;;
32874;SDS011;40468;42.128;24.750;2022-10-16T07:29:04;8.57;;;4.97;;
32874;SDS011;40468;42.128;24.750;2022-10-16T07:30:36;8.50;;;4.70;;
32874;SDS011;40468;42.128;24.750;2022-10-16T07:32:08;8.48;;;5.15;;
32874;SDS011;40468;42.128;24.750;2022-10-16T07:33:40;13.15;;;5.05;;
32874;SDS011;40468;42.128;24.750;2022-10-16T07:35:14;14.43;;;4.85;;
32874;SDS011;40468;42.128;24.750;2022-10-16T07:36:47;9.07;;;5.13;;
32874;SDS011;40468;42.128;24.750;2022-10-16T07:38:19;9.65;;;4.70;;
32874;SDS011;40468;42.128;24.750;2022-10-16T07:39:54;9.85;;;5.30;;
32874;SDS011;40468;42.128;24.750;2022-10-16T07:42:58;8.68;;;4.50;;
32874;SDS011;40468;42.128;24.750;2022-10-16T07:44:29;9.50;;;5.15;;
32874;SDS011;40468;42.128;24.750;2022-10-16T07:46:01;10.18;;;5.10;;
32874;SDS011;40468;42.128;24.750;2022-10-16T07:47:33;11.38;;;4.53;;
32874;SDS011;40468;42.128;24.750;2022-10-16T07:49:05;9.60;;;4.70;;
32874;SDS011;40468;42.128;24.750;2022-10-16T07:50:37;12.38;;;5.13;;
32874;SDS011;40468;42.128;24.750;2022-10-16T07:52:09;11.93;;;4.75;;
32874;SDS011;40468;42.128;24.750;2022-10-16T07:53:41;10.27;;;4.47;;
32874;SDS011;40468;42.128;24.750;2022-10-16T07:55:15;12.60;;;5.00;;
32874;SDS011;40468;42.128;24.750;2022-10-16T07:56:47;9.07;;;4.93;;
32874;SDS011;40468;42.128;24.750;2022-10-16T07:58:19;8.77;;;5.03;;
32874;SDS011;40468;42.128;24.750;2022-10-16T07:59:51;10.75;;;5.00;;
32874;SDS011;40468;42.128;24.750;2022-10-16T08:01:23;12.63;;;5.13;;
32874;SDS011;40468;42.128;24.750;2022-10-16T08:02:56;7.95;;;3.85;;
32874;SDS011;40468;42.128;24.750;2022-10-16T08:04:30;8.27;;;5.13;;
32874;SDS011;40468;42.128;24.750;2022-10-16T08:06:02;8.00;;;4.93;;
32874;SDS011;40468;42.128;24.750;2022-10-16T08:07:35;11.68;;;4.93;;
32874;SDS011;40468;42.128;24.750;2022-10-16T08:09:07;7.95;;;4.10;;
32874;SDS011;40468;42.128;24.750;2022-10-16T08:10:41;8.90;;;4.57;;
32874;SDS011;40468;42.128;24.750;2022-10-16T08:12:13;9.70;;;5.10;;
32874;SDS011;40468;42.128;24.750;2022-10-16T08:13:45;7.72;;;4.10;;
32874;SDS011;40468;42.128;24.750;2022-10-16T08:15:17;12.70;;;4.18;;
32874;SDS011;40468;42.128;24.750;2022-10-16T08:16:50;5.47;;;4.00;;
32874;SDS011;40468;42.128;24.750;2022-10-16T08:18:23;8.65;;;4.53;;
32874;SDS011;40468;42.128;24.750;2022-10-16T08:19:55;9.95;;;4.25;;
32874;SDS011;40468;42.128;24.750;2022-10-16T08:21:27;7.68;;;4.07;;
32874;SDS011;40468;42.128;24.750;2022-10-16T08:22:59;10.40;;;3.88;;
32874;SDS011;40468;42.128;24.750;2022-10-16T08:24:31;9.95;;;4.72;;
32874;SDS011;40468;42.128;24.750;2022-10-16T08:26:07;8.45;;;4.43;;
32874;SDS011;40468;42.128;24.750;2022-10-16T08:27:39;8.93;;;4.45;;
32874;SDS011;40468;42.128;24.750;2022-10-16T08:29:12;10.13;;;4.82;;
32874;SDS011;40468;42.128;24.750;2022-10-16T08:30:45;15.20;;;4.32;;
32874;SDS011;40468;42.128;24.750;2022-10-16T08:32:17;6.43;;;4.07;;
32874;SDS011;40468;42.128;24.750;2022-10-16T08:33:49;9.02;;;3.55;;
32874;SDS011;40468;42.128;24.750;2022-10-16T08:35:22;7.45;;;4.00;;
32874;SDS011;40468;42.128;24.750;2022-10-16T08:36:54;7.85;;;4.32;;
32874;SDS011;40468;42.128;24.750;2022-10-16T08:38:26;7.97;;;4.85;;
32874;SDS011;40468;42.128;24.750;2022-10-16T08:39:58;10.85;;;4.20;;
32874;SDS011;40468;42.128;24.750;2022-10-16T08:43:43;11.10;;;5.00;;
32874;SDS011;40468;42.128;24.750;2022-10-16T08:45:35;6.03;;;4.05;;
32874;SDS011;40468;42.128;24.750;2022-10-16T08:47:17;8.68;;;4.18;;
32874;SDS011;40468;42.128;24.750;2022-10-16T08:48:53;7.22;;;4.20;;
32874;SDS011;40468;42.128;24.750;2022-10-16T08:50:28;8.32;;;4.88;;
32874;SDS011;40468;42.128;24.750;2022-10-16T08:52:02;8.32;;;4.20;;
32874;SDS011;40468;42.128;24.750;2022-10-16T08:53:37;7.70;;;4.10;;
32874;SDS011;40468;42.128;24.750;2022-10-16T08:55:17;9.93;;;4.28;;
32874;SDS011;40468;42.128;24.750;2022-10-16T08:57:09;8.60;;;4.22;;
32874;SDS011;40468;42.128;24.750;2022-10-16T08:58:43;10.02;;;3.95;;
32874;SDS011;40468;42.128;24.750;2022-10-16T09:00:17;7.50;;;3.97;;
32874;SDS011;40468;42.128;24.750;2022-10-16T09:03:30;7.18;;;3.63;;
32874;SDS011;40468;42.128;24.750;2022-10-16T09:05:24;6.28;;;4.10;;
32874;SDS011;40468;42.128;24.750;2022-10-16T09:07:15;6.10;;;3.90;;
32874;SDS011;40468;42.128;24.750;2022-10-16T09:09:03;7.60;;;4.00;;
32874;SDS011;40468;42.128;24.750;2022-10-16T09:10:49;9.15;;;4.03;;
32874;SDS011;40468;42.128;24.750;2022-10-16T09:12:33;15.85;;;4.03;;
32874;SDS011;40468;42.128;24.750;2022-10-16T09:14:15;8.32;;;3.60;;
32874;SDS011;40468;42.128;24.750;2022-10-16T09:16:02;8.43;;;3.17;;
32874;SDS011;40468;42.128;24.750;2022-10-16T09:17:50;5.72;;;3.40;;
32874;SDS011;40468;42.128;24.750;2022-10-16T09:19:28;7.72;;;3.75;;